PGRO/ROP METAR and TAF weather

Enter ICAO airport designator
Station Type Date Time Source
PGRO METAR 2020/01/27 09:50 UTC NOAA

PGRO 270950Z 09014KT 7SM FEW015 BKN035 26/22 A2988 RMK LAST


Station Type Date Time Source
PGRO Decoded METAR 2020/01/27 09:50 UTC NOAA

Rota Island, N. Mariana Is, Rota International Airport, GU, United States (PGRO) 14-11N 145-15E
Jan 27, 2020 - 04:50 AM EST / 2020.01.27 0950 UTC
Wind: from the E (090 degrees) at 16 MPH (14 KT):0
Visibility: 7 mile(s):0
Sky conditions: mostly cloudy
Temperature: 78 F (26 C)
Dew Point: 71 F (22 C)
Relative Humidity: 78%
Pressure (altimeter): 29.88 in. Hg (1011 hPa)
ob: PGRO 270950Z 09014KT 7SM FEW015 BKN035 26/22 A2988 RMK LAST
cycle: 10

Station Type Date Time Source
PGRO TAF 2020/01/27 06:42 UTC NOAA

TAF PGRO 270539Z 2706/2806 09015KT P6SM VCSH SCT015 SCT060
TEMPO 2708/2712 09015G22KT 5SM -SHRA BKN015

Example: see airport list